sensor_id;sensor_type;location;lat;lon;timestamp;P1;durP1;ratioP1;P2;durP2;ratioP2
12480;SDS011;6305;48.398;11.762;2023-04-24T00:00:20;6.63;;;4.30;;
12480;SDS011;6305;48.398;11.762;2023-04-24T00:02:47;5.13;;;4.28;;
12480;SDS011;6305;48.398;11.762;2023-04-24T00:05:16;5.82;;;3.83;;
12480;SDS011;6305;48.398;11.762;2023-04-24T00:07:43;4.75;;;3.55;;
12480;SDS011;6305;48.398;11.762;2023-04-24T00:10:11;4.82;;;3.65;;
12480;SDS011;6305;48.398;11.762;2023-04-24T00:12:39;7.22;;;3.35;;
12480;SDS011;6305;48.398;11.762;2023-04-24T00:15:07;5.65;;;3.35;;
12480;SDS011;6305;48.398;11.762;2023-04-24T00:17:35;5.90;;;3.25;;
12480;SDS011;6305;48.398;11.762;2023-04-24T00:20:02;4.40;;;3.15;;
12480;SDS011;6305;48.398;11.762;2023-04-24T00:22:30;4.80;;;3.20;;
12480;SDS011;6305;48.398;11.762;2023-04-24T00:24:57;5.28;;;3.20;;
12480;SDS011;6305;48.398;11.762;2023-04-24T00:27:24;5.68;;;3.13;;
12480;SDS011;6305;48.398;11.762;2023-04-24T00:29:53;3.65;;;2.67;;
12480;SDS011;6305;48.398;11.762;2023-04-24T00:32:20;3.20;;;2.72;;
12480;SDS011;6305;48.398;11.762;2023-04-24T00:34:47;4.57;;;2.67;;
12480;SDS011;6305;48.398;11.762;2023-04-24T00:37:14;6.10;;;2.92;;
12480;SDS011;6305;48.398;11.762;2023-04-24T00:39:43;4.05;;;2.65;;
12480;SDS011;6305;48.398;11.762;2023-04-24T00:42:10;3.88;;;2.63;;
12480;SDS011;6305;48.398;11.762;2023-04-24T00:44:38;5.60;;;2.78;;
12480;SDS011;6305;48.398;11.762;2023-04-24T00:47:06;4.07;;;3.00;;
12480;SDS011;6305;48.398;11.762;2023-04-24T00:49:34;6.45;;;3.33;;
12480;SDS011;6305;48.398;11.762;2023-04-24T00:52:01;4.30;;;2.90;;
12480;SDS011;6305;48.398;11.762;2023-04-24T00:54:32;4.30;;;3.30;;
12480;SDS011;6305;48.398;11.762;2023-04-24T00:57:00;4.50;;;2.78;;
12480;SDS011;6305;48.398;11.762;2023-04-24T00:59:28;5.43;;;3.30;;
12480;SDS011;6305;48.398;11.762;2023-04-24T01:01:55;3.60;;;2.95;;
12480;SDS011;6305;48.398;11.762;2023-04-24T01:04:24;4.57;;;2.55;;
12480;SDS011;6305;48.398;11.762;2023-04-24T01:06:52;3.72;;;2.88;;
12480;SDS011;6305;48.398;11.762;2023-04-24T01:09:21;4.40;;;3.00;;
12480;SDS011;6305;48.398;11.762;2023-04-24T01:11:50;4.57;;;2.97;;
12480;SDS011;6305;48.398;11.762;2023-04-24T01:14:17;7.65;;;2.97;;
12480;SDS011;6305;48.398;11.762;2023-04-24T01:16:44;4.90;;;2.95;;
12480;SDS011;6305;48.398;11.762;2023-04-24T01:19:11;3.33;;;2.75;;
12480;SDS011;6305;48.398;11.762;2023-04-24T01:21:40;4.13;;;2.95;;
12480;SDS011;6305;48.398;11.762;2023-04-24T01:24:10;4.05;;;2.97;;
12480;SDS011;6305;48.398;11.762;2023-04-24T01:26:38;5.68;;;3.08;;
12480;SDS011;6305;48.398;11.762;2023-04-24T01:29:05;4.15;;;2.90;;
12480;SDS011;6305;48.398;11.762;2023-04-24T01:31:33;4.30;;;2.67;;
12480;SDS011;6305;48.398;11.762;2023-04-24T01:34:01;4.63;;;2.80;;
12480;SDS011;6305;48.398;11.762;2023-04-24T01:36:28;6.03;;;3.00;;
12480;SDS011;6305;48.398;11.762;2023-04-24T01:38:58;3.85;;;2.72;;
12480;SDS011;6305;48.398;11.762;2023-04-24T01:41:27;4.70;;;2.42;;
12480;SDS011;6305;48.398;11.762;2023-04-24T01:43:54;4.72;;;2.50;;
12480;SDS011;6305;48.398;11.762;2023-04-24T01:46:21;4.10;;;2.72;;
12480;SDS011;6305;48.398;11.762;2023-04-24T01:48:49;4.90;;;2.80;;
12480;SDS011;6305;48.398;11.762;2023-04-24T01:51:19;4.28;;;2.58;;
12480;SDS011;6305;48.398;11.762;2023-04-24T01:53:46;3.75;;;2.50;;
12480;SDS011;6305;48.398;11.762;2023-04-24T01:56:14;4.05;;;2.88;;
12480;SDS011;6305;48.398;11.762;2023-04-24T01:58:43;4.07;;;2.90;;
12480;SDS011;6305;48.398;11.762;2023-04-24T02:01:14;3.50;;;2.53;;
12480;SDS011;6305;48.398;11.762;2023-04-24T02:03:43;2.67;;;2.30;;
12480;SDS011;6305;48.398;11.762;2023-04-24T02:06:11;4.03;;;2.33;;
12480;SDS011;6305;48.398;11.762;2023-04-24T02:08:38;2.95;;;2.15;;
12480;SDS011;6305;48.398;11.762;2023-04-24T02:11:05;4.53;;;2.17;;
12480;SDS011;6305;48.398;11.762;2023-04-24T02:13:32;4.53;;;2.40;;
12480;SDS011;6305;48.398;11.762;2023-04-24T02:16:01;2.80;;;2.08;;
12480;SDS011;6305;48.398;11.762;2023-04-24T02:18:30;2.60;;;2.10;;
12480;SDS011;6305;48.398;11.762;2023-04-24T02:20:57;4.07;;;1.95;;
12480;SDS011;6305;48.398;11.762;2023-04-24T02:23:24;3.00;;;1.92;;
12480;SDS011;6305;48.398;11.762;2023-04-24T02:25:52;2.97;;;1.95;;
12480;SDS011;6305;48.398;11.762;2023-04-24T02:28:19;3.22;;;1.88;;
12480;SDS011;6305;48.398;11.762;2023-04-24T02:30:47;3.67;;;2.08;;
12480;SDS011;6305;48.398;11.762;2023-04-24T02:33:15;2.63;;;1.98;;
12480;SDS011;6305;48.398;11.762;2023-04-24T02:35:42;3.17;;;1.98;;
12480;SDS011;6305;48.398;11.762;2023-04-24T02:38:09;3.53;;;1.90;;
12480;SDS011;6305;48.398;11.762;2023-04-24T02:40:36;2.50;;;1.77;;
12480;SDS011;6305;48.398;11.762;2023-04-24T02:43:03;3.53;;;1.92;;
12480;SDS011;6305;48.398;11.762;2023-04-24T02:45:30;2.42;;;1.60;;
12480;SDS011;6305;48.398;11.762;2023-04-24T02:48:00;2.45;;;1.70;;
12480;SDS011;6305;48.398;11.762;2023-04-24T02:50:28;1.90;;;1.50;;
12480;SDS011;6305;48.398;11.762;2023-04-24T02:52:55;3.03;;;1.30;;
12480;SDS011;6305;48.398;11.762;2023-04-24T02:55:22;1.70;;;1.40;;
12480;SDS011;6305;48.398;11.762;2023-04-24T02:57:50;3.03;;;1.67;;
12480;SDS011;6305;48.398;11.762;2023-04-24T03:00:17;3.65;;;1.60;;
12480;SDS011;6305;48.398;11.762;2023-04-24T03:02:44;3.25;;;1.90;;
12480;SDS011;6305;48.398;11.762;2023-04-24T03:05:11;2.63;;;1.60;;
12480;SDS011;6305;48.398;11.762;2023-04-24T03:07:40;1.65;;;1.38;;
12480;SDS011;6305;48.398;11.762;2023-04-24T03:10:07;1.50;;;1.40;;
12480;SDS011;6305;48.398;11.762;2023-04-24T03:12:35;3.13;;;2.17;;
12480;SDS011;6305;48.398;11.762;2023-04-24T03:15:02;2.65;;;1.60;;
12480;SDS011;6305;48.398;11.762;2023-04-24T03:17:30;1.50;;;1.38;;
12480;SDS011;6305;48.398;11.762;2023-04-24T03:19:57;1.60;;;1.30;;
12480;SDS011;6305;48.398;11.762;2023-04-24T03:22:24;3.45;;;1.52;;
12480;SDS011;6305;48.398;11.762;2023-04-24T03:24:53;2.13;;;1.40;;
12480;SDS011;6305;48.398;11.762;2023-04-24T03:27:22;2.42;;;1.40;;
12480;SDS011;6305;48.398;11.762;2023-04-24T03:29:54;2.78;;;1.52;;
12480;SDS011;6305;48.398;11.762;2023-04-24T03:32:25;2.22;;;1.70;;
12480;SDS011;6305;48.398;11.762;2023-04-24T03:34:52;1.83;;;1.23;;
12480;SDS011;6305;48.398;11.762;2023-04-24T03:37:19;3.22;;;1.50;;
12480;SDS011;6305;48.398;11.762;2023-04-24T03:39:58;1.52;;;1.40;;
12480;SDS011;6305;48.398;11.762;2023-04-24T03:42:25;2.58;;;1.38;;
12480;SDS011;6305;48.398;11.762;2023-04-24T03:44:54;1.55;;;1.40;;
12480;SDS011;6305;48.398;11.762;2023-04-24T03:47:26;1.20;;;1.10;;
12480;SDS011;6305;48.398;11.762;2023-04-24T03:49:56;1.67;;;1.35;;
12480;SDS011;6305;48.398;11.762;2023-04-24T03:52:23;2.58;;;1.63;;
12480;SDS011;6305;48.398;11.762;2023-04-24T03:54:50;1.42;;;1.23;;
12480;SDS011;6305;48.398;11.762;2023-04-24T03:57:19;1.70;;;1.33;;
12480;SDS011;6305;48.398;11.762;2023-04-24T03:59:57;2.60;;;1.58;;
12480;SDS011;6305;48.398;11.762;2023-04-24T04:02:25;2.47;;;1.45;;
12480;SDS011;6305;48.398;11.762;2023-04-24T04:04:52;2.05;;;1.40;;
12480;SDS011;6305;48.398;11.762;2023-04-24T04:07:19;2.00;;;1.50;;
12480;SDS011;6305;48.398;11.762;2023-04-24T04:09:46;2.13;;;1.45;;
12480;SDS011;6305;48.398;11.762;2023-04-24T04:12:14;1.40;;;1.30;;
12480;SDS011;6305;48.398;11.762;2023-04-24T04:14:43;2.13;;;1.67;;
12480;SDS011;6305;48.398;11.762;2023-04-24T04:17:10;3.10;;;1.52;;
12480;SDS011;6305;48.398;11.762;2023-04-24T04:19:37;2.42;;;1.52;;
12480;SDS011;6305;48.398;11.762;2023-04-24T04:22:05;1.65;;;1.55;;
12480;SDS011;6305;48.398;11.762;2023-04-24T04:24:39;2.40;;;1.55;;
12480;SDS011;6305;48.398;11.762;2023-04-24T04:27:07;1.90;;;1.50;;
12480;SDS011;6305;48.398;11.762;2023-04-24T04:29:44;3.25;;;1.80;;
12480;SDS011;6305;48.398;11.762;2023-04-24T04:32:12;2.47;;;1.80;;
12480;SDS011;6305;48.398;11.762;2023-04-24T04:34:40;2.20;;;1.70;;
12480;SDS011;6305;48.398;11.762;2023-04-24T04:37:10;2.97;;;1.88;;
12480;SDS011;6305;48.398;11.762;2023-04-24T04:39:54;3.13;;;2.10;;
12480;SDS011;6305;48.398;11.762;2023-04-24T04:42:25;3.00;;;2.00;;
12480;SDS011;6305;48.398;11.762;2023-04-24T04:44:53;2.78;;;1.90;;
12480;SDS011;6305;48.398;11.762;2023-04-24T04:47:28;3.13;;;1.70;;
12480;SDS011;6305;48.398;11.762;2023-04-24T04:49:58;3.00;;;1.90;;
12480;SDS011;6305;48.398;11.762;2023-04-24T04:52:27;3.75;;;2.10;;
12480;SDS011;6305;48.398;11.762;2023-04-24T04:55:03;2.28;;;1.83;;
12480;SDS011;6305;48.398;11.762;2023-04-24T04:57:50;2.00;;;1.73;;
12480;SDS011;6305;48.398;11.762;2023-04-24T05:00:19;3.38;;;1.70;;
12480;SDS011;6305;48.398;11.762;2023-04-24T05:02:50;4.55;;;1.63;;
12480;SDS011;6305;48.398;11.762;2023-04-24T05:05:17;2.75;;;1.73;;
12480;SDS011;6305;48.398;11.762;2023-04-24T05:07:45;2.33;;;1.73;;
12480;SDS011;6305;48.398;11.762;2023-04-24T05:10:12;3.47;;;2.00;;
12480;SDS011;6305;48.398;11.762;2023-04-24T05:12:39;3.80;;;1.80;;
12480;SDS011;6305;48.398;11.762;2023-04-24T05:15:06;3.67;;;2.00;;
12480;SDS011;6305;48.398;11.762;2023-04-24T05:17:35;2.38;;;2.00;;
12480;SDS011;6305;48.398;11.762;2023-04-24T05:20:03;3.67;;;2.10;;
12480;SDS011;6305;48.398;11.762;2023-04-24T05:22:32;6.82;;;1.90;;
12480;SDS011;6305;48.398;11.762;2023-04-24T05:24:59;3.22;;;2.08;;
12480;SDS011;6305;48.398;11.762;2023-04-24T05:27:33;3.13;;;1.90;;
12480;SDS011;6305;48.398;11.762;2023-04-24T05:30:03;3.33;;;2.17;;
12480;SDS011;6305;48.398;11.762;2023-04-24T05:32:31;4.03;;;1.90;;
12480;SDS011;6305;48.398;11.762;2023-04-24T05:35:00;4.82;;;2.20;;
12480;SDS011;6305;48.398;11.762;2023-04-24T05:37:27;4.47;;;2.50;;
12480;SDS011;6305;48.398;11.762;2023-04-24T05:39:54;4.22;;;2.53;;
12480;SDS011;6305;48.398;11.762;2023-04-24T05:42:22;4.28;;;2.33;;
12480;SDS011;6305;48.398;11.762;2023-04-24T05:44:49;5.40;;;2.70;;
12480;SDS011;6305;48.398;11.762;2023-04-24T05:47:16;3.72;;;2.78;;
12480;SDS011;6305;48.398;11.762;2023-04-24T05:49:43;3.90;;;2.35;;
12480;SDS011;6305;48.398;11.762;2023-04-24T05:52:11;2.47;;;2.25;;
12480;SDS011;6305;48.398;11.762;2023-04-24T05:54:39;4.93;;;2.45;;
12480;SDS011;6305;48.398;11.762;2023-04-24T05:57:09;4.00;;;2.60;;
12480;SDS011;6305;48.398;11.762;2023-04-24T05:59:48;3.40;;;2.20;;
12480;SDS011;6305;48.398;11.762;2023-04-24T06:02:16;3.00;;;1.80;;
12480;SDS011;6305;48.398;11.762;2023-04-24T06:04:44;2.28;;;1.35;;
12480;SDS011;6305;48.398;11.762;2023-04-24T06:07:13;1.92;;;1.50;;
12480;SDS011;6305;48.398;11.762;2023-04-24T06:09:42;2.58;;;1.60;;
12480;SDS011;6305;48.398;11.762;2023-04-24T06:12:09;3.78;;;2.00;;
12480;SDS011;6305;48.398;11.762;2023-04-24T06:14:51;2.78;;;1.35;;
12480;SDS011;6305;48.398;11.762;2023-04-24T06:17:25;3.88;;;1.40;;
12480;SDS011;6305;48.398;11.762;2023-04-24T06:19:52;1.98;;;1.50;;
12480;SDS011;6305;48.398;11.762;2023-04-24T06:22:22;1.15;;;1.00;;
12480;SDS011;6305;48.398;11.762;2023-04-24T06:24:49;1.92;;;1.20;;
12480;SDS011;6305;48.398;11.762;2023-04-24T06:27:16;2.63;;;1.20;;
12480;SDS011;6305;48.398;11.762;2023-04-24T06:29:44;1.40;;;1.08;;
12480;SDS011;6305;48.398;11.762;2023-04-24T06:32:10;2.75;;;0.95;;
12480;SDS011;6305;48.398;11.762;2023-04-24T06:34:37;2.47;;;0.90;;
12480;SDS011;6305;48.398;11.762;2023-04-24T06:37:04;1.00;;;0.95;;
12480;SDS011;6305;48.398;11.762;2023-04-24T06:39:33;1.83;;;1.08;;
12480;SDS011;6305;48.398;11.762;2023-04-24T06:42:00;1.05;;;0.95;;
12480;SDS011;6305;48.398;11.762;2023-04-24T06:44:28;1.15;;;1.00;;
12480;SDS011;6305;48.398;11.762;2023-04-24T06:46:55;0.70;;;0.70;;
12480;SDS011;6305;48.398;11.762;2023-04-24T06:49:21;1.08;;;0.82;;
12480;SDS011;6305;48.398;11.762;2023-04-24T06:51:48;0.82;;;0.82;;
12480;SDS011;6305;48.398;11.762;2023-04-24T06:54:15;0.90;;;0.70;;
12480;SDS011;6305;48.398;11.762;2023-04-24T06:56:44;1.00;;;0.90;;
12480;SDS011;6305;48.398;11.762;2023-04-24T06:59:13;1.58;;;0.98;;
12480;SDS011;6305;48.398;11.762;2023-04-24T07:01:40;1.00;;;0.90;;
12480;SDS011;6305;48.398;11.762;2023-04-24T07:04:07;2.78;;;0.80;;
12480;SDS011;6305;48.398;11.762;2023-04-24T07:06:34;1.10;;;0.82;;
12480;SDS011;6305;48.398;11.762;2023-04-24T07:09:02;2.13;;;0.73;;
12480;SDS011;6305;48.398;11.762;2023-04-24T07:11:29;0.77;;;0.68;;
12480;SDS011;6305;48.398;11.762;2023-04-24T07:13:58;0.95;;;0.60;;
12480;SDS011;6305;48.398;11.762;2023-04-24T07:16:25;1.10;;;1.00;;
12480;SDS011;6305;48.398;11.762;2023-04-24T07:18:52;1.55;;;0.65;;
12480;SDS011;6305;48.398;11.762;2023-04-24T07:21:19;1.95;;;0.60;;
12480;SDS011;6305;48.398;11.762;2023-04-24T07:23:46;0.50;;;0.50;;
12480;SDS011;6305;48.398;11.762;2023-04-24T07:26:13;1.50;;;0.60;;
12480;SDS011;6305;48.398;11.762;2023-04-24T07:28:40;0.60;;;0.60;;
12480;SDS011;6305;48.398;11.762;2023-04-24T07:31:08;0.95;;;0.60;;
12480;SDS011;6305;48.398;11.762;2023-04-24T07:33:37;0.82;;;0.50;;
12480;SDS011;6305;48.398;11.762;2023-04-24T07:36:04;0.95;;;0.60;;
12480;SDS011;6305;48.398;11.762;2023-04-24T07:38:31;0.45;;;0.45;;
12480;SDS011;6305;48.398;11.762;2023-04-24T07:40:58;2.00;;;0.50;;
12480;SDS011;6305;48.398;11.762;2023-04-24T07:43:26;0.60;;;0.50;;
12480;SDS011;6305;48.398;11.762;2023-04-24T07:45:53;1.88;;;0.63;;
12480;SDS011;6305;48.398;11.762;2023-04-24T07:48:21;0.73;;;0.63;;
12480;SDS011;6305;48.398;11.762;2023-04-24T07:50:51;0.80;;;0.50;;
12480;SDS011;6305;48.398;11.762;2023-04-24T07:53:18;0.82;;;0.50;;
12480;SDS011;6305;48.398;11.762;2023-04-24T07:55:45;0.80;;;0.50;;
12480;SDS011;6305;48.398;11.762;2023-04-24T07:58:13;1.05;;;0.50;;
12480;SDS011;6305;48.398;11.762;2023-04-24T08:00:40;0.52;;;0.40;;
12480;SDS011;6305;48.398;11.762;2023-04-24T08:03:07;1.25;;;0.52;;
12480;SDS011;6305;48.398;11.762;2023-04-24T08:05:36;0.40;;;0.40;;
12480;SDS011;6305;48.398;11.762;2023-04-24T08:08:03;0.75;;;0.50;;
12480;SDS011;6305;48.398;11.762;2023-04-24T08:10:30;0.63;;;0.60;;
12480;SDS011;6305;48.398;11.762;2023-04-24T08:12:57;0.50;;;0.50;;
12480;SDS011;6305;48.398;11.762;2023-04-24T08:15:24;0.45;;;0.45;;
12480;SDS011;6305;48.398;11.762;2023-04-24T08:17:51;0.50;;;0.45;;
12480;SDS011;6305;48.398;11.762;2023-04-24T08:20:18;1.60;;;0.60;;
12480;SDS011;6305;48.398;11.762;2023-04-24T08:22:47;1.85;;;0.40;;
12480;SDS011;6305;48.398;11.762;2023-04-24T08:25:14;1.00;;;0.40;;
12480;SDS011;6305;48.398;11.762;2023-04-24T08:27:41;1.38;;;0.50;;
12480;SDS011;6305;48.398;11.762;2023-04-24T08:30:09;0.65;;;0.60;;
12480;SDS011;6305;48.398;11.762;2023-04-24T08:32:36;1.17;;;0.60;;
12480;SDS011;6305;48.398;11.762;2023-04-24T08:35:04;1.25;;;0.70;;
12480;SDS011;6305;48.398;11.762;2023-04-24T08:37:34;0.40;;;0.40;;
12480;SDS011;6305;48.398;11.762;2023-04-24T08:40:04;1.10;;;0.60;;
12480;SDS011;6305;48.398;11.762;2023-04-24T08:42:35;0.98;;;0.70;;
12480;SDS011;6305;48.398;11.762;2023-04-24T08:45:04;3.58;;;1.45;;
12480;SDS011;6305;48.398;11.762;2023-04-24T08:47:32;2.20;;;1.23;;
12480;SDS011;6305;48.398;11.762;2023-04-24T08:50:04;1.20;;;0.98;;
12480;SDS011;6305;48.398;11.762;2023-04-24T08:52:33;1.70;;;0.93;;
12480;SDS011;6305;48.398;11.762;2023-04-24T08:55:02;1.38;;;1.23;;
12480;SDS011;6305;48.398;11.762;2023-04-24T08:57:30;2.88;;;1.50;;
12480;SDS011;6305;48.398;11.762;2023-04-24T08:59:58;2.08;;;1.00;;
12480;SDS011;6305;48.398;11.762;2023-04-24T09:02:26;1.40;;;1.13;;
12480;SDS011;6305;48.398;11.762;2023-04-24T09:04:56;1.55;;;1.40;;
12480;SDS011;6305;48.398;11.762;2023-04-24T09:07:23;2.03;;;1.40;;
12480;SDS011;6305;48.398;11.762;2023-04-24T09:09:52;1.40;;;1.27;;
12480;SDS011;6305;48.398;11.762;2023-04-24T09:12:21;3.45;;;1.60;;
12480;SDS011;6305;48.398;11.762;2023-04-24T09:14:49;1.90;;;1.40;;
12480;SDS011;6305;48.398;11.762;2023-04-24T09:17:16;1.80;;;1.20;;
12480;SDS011;6305;48.398;11.762;2023-04-24T09:19:43;2.03;;;1.25;;
12480;SDS011;6305;48.398;11.762;2023-04-24T09:22:10;2.35;;;1.50;;
12480;SDS011;6305;48.398;11.762;2023-04-24T09:24:38;1.33;;;1.23;;
12480;SDS011;6305;48.398;11.762;2023-04-24T09:27:05;2.63;;;1.20;;
12480;SDS011;6305;48.398;11.762;2023-04-24T09:29:35;2.50;;;1.30;;
12480;SDS011;6305;48.398;11.762;2023-04-24T09:32:17;1.50;;;1.05;;
12480;SDS011;6305;48.398;11.762;2023-04-24T09:34:47;1.92;;;1.00;;
12480;SDS011;6305;48.398;11.762;2023-04-24T09:37:18;1.38;;;0.90;;
12480;SDS011;6305;48.398;11.762;2023-04-24T09:40:06;1.02;;;0.90;;
12480;SDS011;6305;48.398;11.762;2023-04-24T09:42:36;1.60;;;0.82;;
12480;SDS011;6305;48.398;11.762;2023-04-24T09:45:05;1.00;;;0.80;;
12480;SDS011;6305;48.398;11.762;2023-04-24T09:47:35;1.50;;;0.90;;
12480;SDS011;6305;48.398;11.762;2023-04-24T09:50:09;0.85;;;0.85;;
12480;SDS011;6305;48.398;11.762;2023-04-24T09:52:39;1.58;;;1.00;;
12480;SDS011;6305;48.398;11.762;2023-04-24T09:55:12;1.00;;;0.90;;
12480;SDS011;6305;48.398;11.762;2023-04-24T09:57:54;1.85;;;1.15;;
12480;SDS011;6305;48.398;11.762;2023-04-24T10:00:23;1.35;;;0.90;;
12480;SDS011;6305;48.398;11.762;2023-04-24T10:02:58;2.40;;;1.15;;
12480;SDS011;6305;48.398;11.762;2023-04-24T10:05:27;1.33;;;0.85;;
12480;SDS011;6305;48.398;11.762;2023-04-24T10:08:02;1.27;;;0.90;;
12480;SDS011;6305;48.398;11.762;2023-04-24T10:10:29;1.38;;;1.05;;
12480;SDS011;6305;48.398;11.762;2023-04-24T10:12:58;1.70;;;1.10;;
12480;SDS011;6305;48.398;11.762;2023-04-24T10:15:27;1.50;;;1.20;;
12480;SDS011;6305;48.398;11.762;2023-04-24T10:17:54;1.88;;;1.33;;
12480;SDS011;6305;48.398;11.762;2023-04-24T10:20:25;1.40;;;1.15;;
12480;SDS011;6305;48.398;11.762;2023-04-24T10:22:54;2.58;;;1.10;;
12480;SDS011;6305;48.398;11.762;2023-04-24T10:25:23;2.08;;;1.13;;
12480;SDS011;6305;48.398;11.762;2023-04-24T10:27:51;1.42;;;1.10;;
12480;SDS011;6305;48.398;11.762;2023-04-24T10:30:22;1.63;;;1.00;;
12480;SDS011;6305;48.398;11.762;2023-04-24T10:32:51;3.00;;;1.08;;
12480;SDS011;6305;48.398;11.762;2023-04-24T10:35:18;1.35;;;1.20;;
12480;SDS011;6305;48.398;11.762;2023-04-24T10:37:48;2.00;;;1.30;;
12480;SDS011;6305;48.398;11.762;2023-04-24T10:40:17;1.13;;;1.02;;
12480;SDS011;6305;48.398;11.762;2023-04-24T10:42:49;2.10;;;1.35;;
12480;SDS011;6305;48.398;11.762;2023-04-24T10:45:19;2.35;;;1.00;;
12480;SDS011;6305;48.398;11.762;2023-04-24T10:47:52;1.45;;;1.17;;
12480;SDS011;6305;48.398;11.762;2023-04-24T10:50:19;1.35;;;1.10;;
12480;SDS011;6305;48.398;11.762;2023-04-24T10:52:47;1.40;;;1.00;;
12480;SDS011;6305;48.398;11.762;2023-04-24T10:55:16;1.90;;;1.20;;
12480;SDS011;6305;48.398;11.762;2023-04-24T10:58:05;1.23;;;0.93;;
12480;SDS011;6305;48.398;11.762;2023-04-24T11:00:32;1.15;;;1.08;;
12480;SDS011;6305;48.398;11.762;2023-04-24T11:03:04;1.15;;;1.05;;
12480;SDS011;6305;48.398;11.762;2023-04-24T11:05:50;1.10;;;1.00;;
12480;SDS011;6305;48.398;11.762;2023-04-24T11:08:32;3.13;;;1.10;;
12480;SDS011;6305;48.398;11.762;2023-04-24T11:11:07;1.50;;;1.05;;
12480;SDS011;6305;48.398;11.762;2023-04-24T11:16:29;1.38;;;1.00;;
12480;SDS011;6305;48.398;11.762;2023-04-24T11:19:03;2.10;;;1.20;;
12480;SDS011;6305;48.398;11.762;2023-04-24T11:21:31;1.38;;;0.77;;
12480;SDS011;6305;48.398;11.762;2023-04-24T11:26:50;1.38;;;1.10;;
12480;SDS011;6305;48.398;11.762;2023-04-24T11:29:19;0.98;;;0.85;;
12480;SDS011;6305;48.398;11.762;2023-04-24T11:31:46;1.60;;;1.50;;
12480;SDS011;6305;48.398;11.762;2023-04-24T11:34:17;1.30;;;1.20;;
12480;SDS011;6305;48.398;11.762;2023-04-24T11:36:45;2.25;;;1.35;;
12480;SDS011;6305;48.398;11.762;2023-04-24T11:39:13;1.73;;;1.35;;
12480;SDS011;6305;48.398;11.762;2023-04-24T11:41:40;2.28;;;1.30;;
12480;SDS011;6305;48.398;11.762;2023-04-24T11:44:08;2.55;;;1.40;;
12480;SDS011;6305;48.398;11.762;2023-04-24T11:46:35;1.67;;;1.30;;
12480;SDS011;6305;48.398;11.762;2023-04-24T11:49:05;1.75;;;1.30;;
12480;SDS011;6305;48.398;11.762;2023-04-24T11:51:33;1.85;;;1.23;;
12480;SDS011;6305;48.398;11.762;2023-04-24T11:54:00;1.33;;;1.20;;
12480;SDS011;6305;48.398;11.762;2023-04-24T11:56:28;1.83;;;1.20;;
12480;SDS011;6305;48.398;11.762;2023-04-24T11:58:55;2.58;;;1.30;;
12480;SDS011;6305;48.398;11.762;2023-04-24T12:01:22;1.60;;;1.50;;
12480;SDS011;6305;48.398;11.762;2023-04-24T12:03:50;2.72;;;1.50;;
12480;SDS011;6305;48.398;11.762;2023-04-24T12:06:25;2.22;;;1.30;;
12480;SDS011;6305;48.398;11.762;2023-04-24T12:08:53;1.52;;;1.42;;
12480;SDS011;6305;48.398;11.762;2023-04-24T12:11:22;1.30;;;1.20;;
12480;SDS011;6305;48.398;11.762;2023-04-24T12:13:51;1.90;;;1.35;;
12480;SDS011;6305;48.398;11.762;2023-04-24T12:16:18;2.15;;;1.30;;
12480;SDS011;6305;48.398;11.762;2023-04-24T12:18:45;1.80;;;1.20;;
12480;SDS011;6305;48.398;11.762;2023-04-24T12:21:16;1.40;;;1.30;;
12480;SDS011;6305;48.398;11.762;2023-04-24T12:23:47;2.95;;;1.38;;
12480;SDS011;6305;48.398;11.762;2023-04-24T12:26:19;2.55;;;1.30;;
12480;SDS011;6305;48.398;11.762;2023-04-24T12:28:48;1.75;;;1.40;;
12480;SDS011;6305;48.398;11.762;2023-04-24T12:31:16;1.58;;;1.30;;
12480;SDS011;6305;48.398;11.762;2023-04-24T12:33:43;1.90;;;1.58;;
12480;SDS011;6305;48.398;11.762;2023-04-24T12:36:10;1.45;;;1.17;;
12480;SDS011;6305;48.398;11.762;2023-04-24T12:38:38;4.07;;;1.77;;
12480;SDS011;6305;48.398;11.762;2023-04-24T12:41:11;1.33;;;1.20;;
12480;SDS011;6305;48.398;11.762;2023-04-24T12:43:51;1.35;;;1.25;;
12480;SDS011;6305;48.398;11.762;2023-04-24T12:46:18;1.50;;;1.30;;
12480;SDS011;6305;48.398;11.762;2023-04-24T12:48:45;1.27;;;1.15;;
12480;SDS011;6305;48.398;11.762;2023-04-24T12:51:12;3.05;;;1.35;;
12480;SDS011;6305;48.398;11.762;2023-04-24T12:53:39;2.15;;;1.25;;
12480;SDS011;6305;48.398;11.762;2023-04-24T12:56:06;1.65;;;1.05;;
12480;SDS011;6305;48.398;11.762;2023-04-24T12:58:33;1.77;;;1.20;;
12480;SDS011;6305;48.398;11.762;2023-04-24T13:01:02;4.93;;;1.65;;
12480;SDS011;6305;48.398;11.762;2023-04-24T13:03:29;2.03;;;1.10;;
12480;SDS011;6305;48.398;11.762;2023-04-24T13:05:56;3.08;;;1.27;;
12480;SDS011;6305;48.398;11.762;2023-04-24T13:08:23;3.08;;;1.20;;
12480;SDS011;6305;48.398;11.762;2023-04-24T13:10:50;1.30;;;1.10;;
12480;SDS011;6305;48.398;11.762;2023-04-24T13:13:19;1.52;;;1.27;;
12480;SDS011;6305;48.398;11.762;2023-04-24T13:15:46;2.10;;;1.20;;
12480;SDS011;6305;48.398;11.762;2023-04-24T13:18:14;1.38;;;1.10;;
12480;SDS011;6305;48.398;11.762;2023-04-24T13:20:41;1.25;;;0.98;;
12480;SDS011;6305;48.398;11.762;2023-04-24T13:23:09;1.67;;;1.05;;
12480;SDS011;6305;48.398;11.762;2023-04-24T13:25:36;2.47;;;1.38;;
12480;SDS011;6305;48.398;11.762;2023-04-24T13:28:04;3.17;;;1.40;;
12480;SDS011;6305;48.398;11.762;2023-04-24T13:30:31;1.83;;;0.93;;
12480;SDS011;6305;48.398;11.762;2023-04-24T13:32:58;3.33;;;0.77;;
12480;SDS011;6305;48.398;11.762;2023-04-24T13:35:26;1.75;;;1.00;;
12480;SDS011;6305;48.398;11.762;2023-04-24T13:37:53;1.80;;;0.82;;
12480;SDS011;6305;48.398;11.762;2023-04-24T13:40:21;2.72;;;1.00;;
12480;SDS011;6305;48.398;11.762;2023-04-24T13:42:48;1.10;;;0.80;;
12480;SDS011;6305;48.398;11.762;2023-04-24T13:45:15;3.70;;;1.10;;
12480;SDS011;6305;48.398;11.762;2023-04-24T13:47:42;1.38;;;1.27;;
12480;SDS011;6305;48.398;11.762;2023-04-24T13:50:09;1.17;;;0.90;;
12480;SDS011;6305;48.398;11.762;2023-04-24T13:52:38;4.40;;;0.95;;
12480;SDS011;6305;48.398;11.762;2023-04-24T13:55:05;2.28;;;1.10;;
12480;SDS011;6305;48.398;11.762;2023-04-24T13:57:33;2.30;;;1.00;;
12480;SDS011;6305;48.398;11.762;2023-04-24T14:00:00;2.60;;;1.00;;
12480;SDS011;6305;48.398;11.762;2023-04-24T14:02:32;1.50;;;1.10;;
12480;SDS011;6305;48.398;11.762;2023-04-24T14:05:00;1.10;;;1.00;;
12480;SDS011;6305;48.398;11.762;2023-04-24T14:07:28;1.55;;;1.25;;
12480;SDS011;6305;48.398;11.762;2023-04-24T14:09:57;1.80;;;1.10;;
12480;SDS011;6305;48.398;11.762;2023-04-24T14:12:24;1.58;;;1.23;;
12480;SDS011;6305;48.398;11.762;2023-04-24T14:14:51;2.80;;;1.20;;
12480;SDS011;6305;48.398;11.762;2023-04-24T14:17:18;1.20;;;1.05;;
12480;SDS011;6305;48.398;11.762;2023-04-24T14:19:45;1.52;;;1.30;;
12480;SDS011;6305;48.398;11.762;2023-04-24T14:22:12;2.17;;;1.17;;
12480;SDS011;6305;48.398;11.762;2023-04-24T14:24:39;2.78;;;1.35;;
12480;SDS011;6305;48.398;11.762;2023-04-24T14:27:07;1.17;;;1.08;;
12480;SDS011;6305;48.398;11.762;2023-04-24T14:29:34;1.88;;;1.00;;
12480;SDS011;6305;48.398;11.762;2023-04-24T14:32:01;1.98;;;1.10;;
12480;SDS011;6305;48.398;11.762;2023-04-24T14:34:28;1.75;;;1.00;;
12480;SDS011;6305;48.398;11.762;2023-04-24T14:36:55;1.63;;;1.02;;
12480;SDS011;6305;48.398;11.762;2023-04-24T14:39:24;1.15;;;1.02;;
12480;SDS011;6305;48.398;11.762;2023-04-24T14:41:51;1.50;;;1.10;;
12480;SDS011;6305;48.398;11.762;2023-04-24T14:44:19;1.27;;;1.05;;
12480;SDS011;6305;48.398;11.762;2023-04-24T14:46:46;2.97;;;1.17;;
12480;SDS011;6305;48.398;11.762;2023-04-24T14:49:14;1.30;;;1.08;;
12480;SDS011;6305;48.398;11.762;2023-04-24T14:51:42;1.23;;;1.10;;
12480;SDS011;6305;48.398;11.762;2023-04-24T14:54:09;2.28;;;0.90;;
12480;SDS011;6305;48.398;11.762;2023-04-24T14:56:36;1.05;;;0.93;;
12480;SDS011;6305;48.398;11.762;2023-04-24T14:59:06;1.63;;;1.17;;
12480;SDS011;6305;48.398;11.762;2023-04-24T15:01:34;1.75;;;1.10;;